Time;durP1;ratioP1;P1;durP2;ratioP2;P2;SDS_P1;SDS_P2;PMS_P1;PMS_P2;Temp;Humidity;BMP_temperature;BMP_pressure;BME280_temperature;BME280_humidity;BME280_pressure;Samples;Min_cycle;Max_cycle;Signal;HPM_P1;HPM_P2
2022/05/09 00:00:05;;;;;;;5.65;1.77;;;22.60;39.00;;;;;;5147851;27;20156;-40
2022/05/09 00:02:30;;;;;;;2.67;1.52;;;22.60;39.00;;;;;;5147793;27;20019;-38
2022/05/09 00:04:56;;;;;;;3.75;1.70;;;22.60;39.00;;;;;;5148440;27;20015;-37
2022/05/09 00:07:23;;;;;;;2.47;1.50;;;22.50;38.90;;;;;;5146813;27;20464;-43
2022/05/09 00:09:48;;;;;;;4.40;1.90;;;22.50;38.90;;;;;;5148425;27;20039;-41
2022/05/09 00:12:15;;;;;;;4.13;1.55;;;22.50;39.00;;;;;;5149435;27;20019;-38
2022/05/09 00:14:42;;;;;;;4.05;1.73;;;22.50;39.00;;;;;;5142188;27;20015;-36
2022/05/09 00:17:07;;;;;;;4.13;1.85;;;22.50;39.00;;;;;;5141950;27;20039;-37
2022/05/09 00:19:34;;;;;;;3.47;1.60;;;22.50;39.00;;;;;;5123818;27;20065;-37
2022/05/09 00:22:00;;;;;;;4.60;1.70;;;22.50;39.10;;;;;;5139990;27;20505;-39
2022/05/09 00:24:26;;;;;;;5.45;1.75;;;22.50;39.10;;;;;;5141255;27;20457;-37
2022/05/09 00:26:52;;;;;;;4.53;2.03;;;22.50;39.10;;;;;;5141810;27;20023;-37
2022/05/09 00:29:20;;;;;;;3.53;1.77;;;22.50;39.10;;;;;;5144772;27;20473;-37
2022/05/09 00:31:47;;;;;;;4.72;1.88;;;22.40;39.10;;;;;;5144973;27;20007;-38
2022/05/09 00:34:17;;;;;;;3.03;1.60;;;22.50;39.20;;;;;;5145766;27;20086;-38
2022/05/09 00:36:43;;;;;;;2.78;1.63;;;22.50;39.20;;;;;;5146427;27;20008;-39
2022/05/09 00:39:09;;;;;;;3.72;1.63;;;22.50;39.20;;;;;;5145857;27;20019;-38
2022/05/09 00:41:37;;;;;;;4.03;1.60;;;22.50;39.20;;;;;;5141214;27;20107;-39
2022/05/09 00:44:22;;;;;;;3.40;1.50;;;22.40;39.20;;;;;;5141881;27;20050;-38
2022/05/09 00:46:51;;;;;;;2.97;1.80;;;22.50;39.30;;;;;;5141607;27;20026;-40
2022/05/09 00:49:24;;;;;;;2.83;1.65;;;22.40;39.30;;;;;;5141911;27;20007;-39
2022/05/09 00:51:52;;;;;;;2.78;1.58;;;22.40;39.30;;;;;;5143110;27;20045;-39
2022/05/09 00:54:18;;;;;;;4.28;1.85;;;22.40;39.30;;;;;;5143517;27;20078;-39
2022/05/09 00:56:58;;;;;;;4.78;2.08;;;22.40;39.30;;;;;;5141693;27;20416;-39
2022/05/09 00:59:24;;;;;;;4.78;1.98;;;22.40;39.30;;;;;;5142571;27;20025;-43
2022/05/09 01:01:50;;;;;;;4.10;1.85;;;22.40;39.30;;;;;;5144480;27;20119;-42
2022/05/09 01:04:19;;;;;;;5.72;2.13;;;22.40;39.40;;;;;;5142735;27;20063;-38
2022/05/09 01:06:45;;;;;;;4.20;2.10;;;22.40;39.40;;;;;;5142251;27;20027;-38
2022/05/09 01:09:11;;;;;;;3.35;1.60;;;22.40;39.40;;;;;;5142886;27;20021;-40
2022/05/09 01:11:37;;;;;;;3.00;1.67;;;22.40;39.40;;;;;;5141787;27;20015;-38
2022/05/09 01:14:16;;;;;;;3.25;1.60;;;22.40;39.50;;;;;;5141581;27;20067;-40
2022/05/09 01:16:43;;;;;;;3.90;1.70;;;22.40;39.50;;;;;;5141677;27;20027;-38
2022/05/09 01:19:30;;;;;;;3.83;1.67;;;22.40;39.50;;;;;;5141564;27;20015;-39
2022/05/09 01:21:56;;;;;;;3.22;1.88;;;22.40;39.50;;;;;;5139564;27;20118;-38
2022/05/09 01:24:23;;;;;;;4.25;1.70;;;22.40;39.50;;;;;;5141580;27;20095;-40
2022/05/09 01:26:50;;;;;;;4.95;1.60;;;22.40;39.50;;;;;;5142081;27;20083;-41
2022/05/09 01:29:30;;;;;;;5.38;1.60;;;22.40;39.60;;;;;;5141958;27;20008;-39
2022/05/09 01:31:56;;;;;;;2.75;1.63;;;22.40;39.60;;;;;;5140106;27;20015;-38
2022/05/09 01:34:22;;;;;;;3.67;1.60;;;22.30;39.60;;;;;;5139262;27;20020;-39
2022/05/09 01:36:54;;;;;;;4.30;1.67;;;22.30;39.60;;;;;;5138932;27;20015;-40
2022/05/09 01:39:22;;;;;;;2.58;1.55;;;22.30;39.60;;;;;;5138672;27;20019;-41
2022/05/09 01:41:49;;;;;;;4.50;1.80;;;22.30;39.70;;;;;;5139531;27;20042;-38
2022/05/09 01:44:15;;;;;;;4.90;1.90;;;22.30;39.60;;;;;;5140404;27;20023;-39
2022/05/09 01:49:32;;;;;;;4.00;1.60;;;22.30;39.60;;;;;;5138179;27;20056;-39
2022/05/09 01:51:59;;;;;;;3.25;1.70;;;22.30;39.70;;;;;;5137885;27;20080;-38
2022/05/09 01:54:25;;;;;;;3.58;2.00;;;22.30;40.20;;;;;;5138937;27;20015;-41
2022/05/09 01:56:51;;;;;;;3.50;1.80;;;22.30;39.60;;;;;;5138900;27;20045;-41
2022/05/09 01:59:17;;;;;;;4.00;1.95;;;22.30;39.70;;;;;;5139963;27;20016;-40
2022/05/09 02:01:48;;;;;;;3.55;1.70;;;22.30;39.70;;;;;;5140441;27;20170;-40
2022/05/09 02:04:15;;;;;;;3.85;1.90;;;22.30;39.70;;;;;;5140077;27;20007;-40
2022/05/09 02:06:42;;;;;;;4.30;1.70;;;22.30;39.70;;;;;;5139594;27;20473;-41
2022/05/09 02:09:07;;;;;;;4.20;1.70;;;22.30;39.70;;;;;;5138137;27;20015;-39
2022/05/09 02:11:34;;;;;;;3.78;1.88;;;22.30;39.60;;;;;;5137265;27;20096;-41
2022/05/09 02:14:00;;;;;;;5.25;1.90;;;22.30;39.70;;;;;;5137978;27;20481;-38
2022/05/09 02:16:26;;;;;;;5.63;1.80;;;22.30;40.20;;;;;;5138608;27;20072;-38
2022/05/09 02:18:52;;;;;;;4.35;2.00;;;22.30;39.70;;;;;;5136947;27;20020;-40
2022/05/09 02:21:19;;;;;;;4.75;1.65;;;22.30;40.30;;;;;;5137777;27;20091;-43
2022/05/09 02:23:45;;;;;;;3.17;1.80;;;22.20;39.70;;;;;;5137834;27;20019;-39
2022/05/09 02:26:11;;;;;;;3.03;1.70;;;22.20;39.70;;;;;;5136907;27;20046;-43
2022/05/09 02:28:38;;;;;;;4.68;2.10;;;22.20;39.70;;;;;;5137132;27;20087;-40
2022/05/09 02:31:03;;;;;;;3.50;1.75;;;22.20;39.70;;;;;;5139070;27;20529;-39
2022/05/09 02:33:30;;;;;;;4.38;1.80;;;22.20;39.70;;;;;;5138724;27;20350;-39
2022/05/09 02:35:56;;;;;;;2.75;1.70;;;22.30;39.80;;;;;;5139095;27;20014;-40
2022/05/09 02:38:24;;;;;;;3.30;1.95;;;22.20;39.70;;;;;;5138019;27;20083;-39
2022/05/09 02:40:51;;;;;;;4.35;1.88;;;22.20;39.70;;;;;;5138483;27;20015;-39
2022/05/09 02:43:17;;;;;;;2.80;1.70;;;22.20;39.70;;;;;;5137543;27;20469;-38
2022/05/09 02:45:44;;;;;;;3.65;1.77;;;22.20;39.80;;;;;;5138039;27;20035;-41
2022/05/09 02:48:10;;;;;;;4.05;1.80;;;22.20;39.80;;;;;;5137071;27;20023;-40
2022/05/09 02:50:36;;;;;;;3.45;1.60;;;22.30;39.80;;;;;;5135723;27;20015;-39
2022/05/09 02:53:03;;;;;;;3.08;1.77;;;22.20;39.70;;;;;;5136426;27;20466;-40
2022/05/09 02:55:31;;;;;;;3.95;2.00;;;22.20;39.70;;;;;;5138105;27;20067;-40
2022/05/09 02:57:57;;;;;;;3.25;1.88;;;22.20;39.80;;;;;;5139754;27;20067;-39
2022/05/09 03:00:24;;;;;;;3.53;2.00;;;22.20;39.80;;;;;;5140878;27;20021;-39
2022/05/09 03:05:36;;;;;;;2.97;1.75;;;22.20;39.80;;;;;;5140399;27;20072;-40
2022/05/09 03:08:01;;;;;;;4.88;1.90;;;22.20;39.80;;;;;;5139960;27;20115;-39
2022/05/09 03:10:29;;;;;;;6.20;2.15;;;22.20;39.80;;;;;;5141159;27;20039;-42
2022/05/09 03:13:01;;;;;;;4.28;1.70;;;22.20;39.80;;;;;;5141412;27;20025;-39
2022/05/09 03:15:28;;;;;;;3.10;1.95;;;22.20;39.80;;;;;;5139330;27;20015;-41
2022/05/09 03:17:55;;;;;;;3.50;1.77;;;22.20;39.80;;;;;;5138371;27;20007;-39
2022/05/09 03:20:22;;;;;;;3.42;1.83;;;22.10;39.70;;;;;;5137537;27;20035;-39
2022/05/09 03:22:49;;;;;;;3.70;2.00;;;22.20;39.80;;;;;;5136845;27;20053;-39
2022/05/09 03:25:15;;;;;;;3.20;1.60;;;22.10;39.80;;;;;;5139407;27;20094;-40
2022/05/09 03:27:42;;;;;;;3.70;1.83;;;22.20;39.80;;;;;;5139834;27;20022;-38
2022/05/09 03:30:08;;;;;;;2.67;1.60;;;22.20;39.80;;;;;;5137861;28;20015;-38
2022/05/09 03:32:35;;;;;;;3.65;1.88;;;22.10;39.80;;;;;;5138655;27;20042;-37
2022/05/09 03:35:02;;;;;;;3.13;1.70;;;22.10;39.80;;;;;;5137821;27;20064;-36
2022/05/09 03:37:30;;;;;;;5.00;2.35;;;22.10;39.80;;;;;;5136700;28;20007;-36
2022/05/09 03:39:55;;;;;;;5.25;1.95;;;22.10;39.80;;;;;;5138137;27;20039;-36
2022/05/09 03:42:21;;;;;;;3.60;1.92;;;22.10;39.80;;;;;;5137704;28;20012;-36
2022/05/09 03:44:47;;;;;;;2.75;2.00;;;22.20;39.80;;;;;;5139024;28;20575;-37
2022/05/09 03:47:13;;;;;;;3.60;1.70;;;22.10;39.80;;;;;;5140853;27;20492;-37
2022/05/09 03:49:39;;;;;;;3.33;1.65;;;22.10;39.80;;;;;;5140909;28;20011;-36
2022/05/09 03:52:05;;;;;;;3.85;1.95;;;22.10;39.80;;;;;;5140547;27;20012;-35
2022/05/09 03:54:30;;;;;;;2.85;1.70;;;22.10;39.80;;;;;;5139150;28;20019;-37
2022/05/09 03:56:57;;;;;;;3.83;1.83;;;22.10;39.80;;;;;;5139073;28;20033;-37
2022/05/09 03:59:23;;;;;;;4.60;2.20;;;22.10;39.80;;;;;;5140164;28;20019;-38
2022/05/09 04:01:48;;;;;;;4.85;1.90;;;22.10;39.80;;;;;;5139658;28;20011;-37
2022/05/09 04:04:14;;;;;;;2.90;1.75;;;22.10;39.80;;;;;;5138851;28;20381;-36
2022/05/09 04:06:41;;;;;;;3.85;1.80;;;22.10;39.80;;;;;;5139399;27;20088;-37
2022/05/09 04:09:07;;;;;;;3.70;2.17;;;22.10;39.80;;;;;;5139330;27;20008;-37
2022/05/09 04:11:33;;;;;;;2.97;1.80;;;22.10;39.80;;;;;;5139463;27;20483;-36
2022/05/09 04:13:59;;;;;;;3.97;1.80;;;22.10;39.80;;;;;;5139303;28;20688;-40
2022/05/09 04:19:11;;;;;;;4.15;2.38;;;22.10;39.70;;;;;;5145560;27;20066;-38
2022/05/09 04:21:37;;;;;;;3.78;1.85;;;22.10;39.70;;;;;;5145036;27;20047;-37
2022/05/09 04:24:03;;;;;;;2.53;1.67;;;22.10;39.70;;;;;;5143833;27;20018;-37
2022/05/09 04:26:31;;;;;;;4.32;1.75;;;22.10;39.70;;;;;;5144127;27;20032;-38
2022/05/09 04:28:57;;;;;;;4.68;1.75;;;22.10;39.70;;;;;;5144503;27;20011;-38
2022/05/09 04:31:24;;;;;;;4.82;1.85;;;22.10;39.60;;;;;;5143032;27;20133;-38
2022/05/09 04:33:50;;;;;;;3.58;1.60;;;22.10;39.50;;;;;;5140450;27;20580;-37
2022/05/09 04:36:17;;;;;;;4.18;2.25;;;22.20;39.40;;;;;;5141887;27;20022;-41
2022/05/09 04:38:43;;;;;;;3.17;1.67;;;22.20;39.30;;;;;;5141452;27;20012;-38
2022/05/09 04:41:10;;;;;;;4.57;1.70;;;22.20;39.20;;;;;;5141354;27;20015;-38
2022/05/09 04:43:36;;;;;;;3.35;1.63;;;22.30;39.10;;;;;;5142316;27;20110;-43
2022/05/09 04:46:03;;;;;;;4.18;1.85;;;22.30;39.00;;;;;;5143119;27;20007;-41
2022/05/09 04:48:29;;;;;;;4.72;1.88;;;22.40;39.00;;;;;;5142574;27;20139;-40
2022/05/09 04:50:56;;;;;;;3.80;2.00;;;22.40;38.80;;;;;;5144606;27;20007;-37
2022/05/09 04:53:24;;;;;;;3.28;1.70;;;22.50;38.80;;;;;;5143667;27;20385;-38
2022/05/09 04:55:53;;;;;;;2.83;1.35;;;22.60;38.70;;;;;;5142090;27;20059;-38
2022/05/09 04:58:20;;;;;;;3.47;1.65;;;22.60;38.40;;;;;;5143541;27;20030;-40
2022/05/09 05:00:46;;;;;;;2.63;1.60;;;22.70;38.30;;;;;;5124167;27;20023;-39
2022/05/09 05:03:12;;;;;;;4.30;1.67;;;22.80;38.10;;;;;;5142441;27;20106;-38
2022/05/09 05:05:38;;;;;;;4.93;2.13;;;22.90;38.00;;;;;;5142604;27;20023;-38
2022/05/09 05:08:04;;;;;;;3.50;1.65;;;23.00;37.80;;;;;;5139969;27;20027;-40
2022/05/09 05:10:34;;;;;;;3.25;1.70;;;23.10;37.60;;;;;;5141175;27;20019;-38
2022/05/09 05:13:03;;;;;;;4.07;1.70;;;23.20;37.30;;;;;;5142139;27;20008;-41
2022/05/09 05:15:29;;;;;;;5.57;2.13;;;23.30;37.10;;;;;;5142101;27;20102;-40
2022/05/09 05:17:55;;;;;;;3.30;1.65;;;23.60;36.80;;;;;;5142484;27;20064;-37
2022/05/09 05:20:22;;;;;;;3.17;1.70;;;23.80;36.30;;;;;;5139317;27;20084;-39
2022/05/09 05:22:48;;;;;;;4.70;1.58;;;24.00;35.90;;;;;;5141853;27;20106;-39
2022/05/09 05:25:25;;;;;;;3.50;1.58;;;24.20;35.50;;;;;;5142948;27;20023;-38
2022/05/09 05:27:52;;;;;;;4.65;1.70;;;24.40;35.20;;;;;;5142146;27;20046;-35
2022/05/09 05:30:18;;;;;;;2.78;1.65;;;24.50;34.80;;;;;;5141723;27;20024;-37
2022/05/09 05:32:43;;;;;;;5.10;1.88;;;24.70;34.60;;;;;;5141165;27;20011;-36
2022/05/09 05:35:12;;;;;;;3.33;1.50;;;24.80;34.20;;;;;;5137790;27;20086;-38
2022/05/09 05:37:37;;;;;;;4.20;1.92;;;25.00;34.00;;;;;;5138619;27;20019;-37
2022/05/09 05:40:04;;;;;;;6.78;2.17;;;25.20;33.80;;;;;;5140030;27;20400;-38
2022/05/09 05:42:30;;;;;;;3.80;1.60;;;25.30;33.50;;;;;;5121108;27;20031;-38
2022/05/09 05:44:57;;;;;;;3.28;1.60;;;25.40;33.30;;;;;;5141666;27;20012;-38
2022/05/09 05:47:23;;;;;;;3.03;1.75;;;25.60;33.10;;;;;;5139551;27;20035;-40
2022/05/09 05:49:49;;;;;;;3.00;1.55;;;25.70;32.80;;;;;;5140631;27;20480;-38
2022/05/09 05:52:15;;;;;;;2.00;1.40;;;25.90;32.60;;;;;;5121651;27;20015;-40
2022/05/09 05:54:43;;;;;;;2.60;1.48;;;26.00;32.40;;;;;;5136704;27;20180;-38
2022/05/09 05:57:18;;;;;;;3.03;1.45;;;26.10;32.30;;;;;;5137450;27;20018;-38
2022/05/09 06:00:03;;;;;;;3.53;1.63;;;26.20;32.10;;;;;;5137814;27;20015;-39
2022/05/09 06:02:29;;;;;;;3.58;1.70;;;26.30;31.90;;;;;;5136453;27;20410;-39
2022/05/09 06:04:56;;;;;;;3.83;1.52;;;26.50;32.30;;;;;;5135399;27;20030;-38
2022/05/09 06:07:24;;;;;;;2.88;1.65;;;26.60;31.50;;;;;;5136173;27;20446;-37
2022/05/09 06:09:51;;;;;;;4.13;1.52;;;26.70;31.30;;;;;;5134940;27;20015;-37
2022/05/09 06:12:19;;;;;;;3.10;1.40;;;26.90;31.20;;;;;;5135779;27;20520;-38
2022/05/09 06:15:24;;;;;;;3.13;1.50;;;27.00;31.00;;;;;;5135547;27;20007;-38
2022/05/09 06:17:31;;;;;;;6.13;1.50;;;27.10;30.80;;;;;;5134270;27;20120;-37
2022/05/09 06:19:57;;;;;;;3.67;1.38;;;27.20;30.60;;;;;;5133187;27;20015;-38
2022/05/09 06:22:23;;;;;;;4.47;1.80;;;27.40;30.50;;;;;;5131101;27;20059;-37
2022/05/09 06:24:48;;;;;;;4.93;1.80;;;27.40;30.30;;;;;;5132851;27;20072;-37
2022/05/09 06:27:15;;;;;;;12.80;2.67;;;27.00;30.70;;;;;;5132862;27;20072;-37
2022/05/09 06:29:43;;;;;;;15.88;2.25;;;26.70;31.60;;;;;;5133897;27;20019;-37
2022/05/09 06:32:09;;;;;;;17.42;2.70;;;26.20;32.40;;;;;;5133028;27;20064;-37
2022/05/09 06:34:34;;;;;;;17.27;2.90;;;26.00;33.00;;;;;;5115912;27;20008;-37
2022/05/09 06:37:03;;;;;;;12.32;2.80;;;26.10;33.60;;;;;;5134704;27;20492;-37
2022/05/09 06:39:29;;;;;;;14.77;2.75;;;26.20;33.10;;;;;;5132273;27;20114;-37
2022/05/09 06:41:57;;;;;;;23.38;3.47;;;26.30;33.00;;;;;;5134207;27;20137;-37
2022/05/09 06:44:23;;;;;;;20.27;3.47;;;26.40;33.00;;;;;;5134207;27;20034;-38
2022/05/09 06:46:49;;;;;;;43.55;19.55;;;26.60;33.10;;;;;;5134285;27;20469;-39
2022/05/09 06:49:14;;;;;;;40.35;19.98;;;26.90;34.40;;;;;;5132719;27;20022;-38
2022/05/09 06:51:40;;;;;;;32.15;13.38;;;27.20;35.40;;;;;;5098419;27;20051;-39
2022/05/09 06:54:06;;;;;;;34.63;10.23;;;27.20;34.00;;;;;;5132232;27;20015;-39
2022/05/09 06:56:31;;;;;;;29.45;8.95;;;27.20;33.80;;;;;;5115152;27;20413;-39
2022/05/09 06:58:57;;;;;;;24.48;9.13;;;27.30;33.70;;;;;;5132072;27;20011;-39
2022/05/09 07:01:23;;;;;;;30.38;9.95;;;27.40;33.70;;;;;;5133360;27;20049;-39
2022/05/09 07:03:48;;;;;;;31.25;8.32;;;27.40;33.70;;;;;;5133195;27;20012;-39
2022/05/09 07:06:16;;;;;;;17.77;6.60;;;27.50;33.70;;;;;;5133103;27;20027;-38
2022/05/09 07:08:42;;;;;;;24.25;6.60;;;27.60;33.60;;;;;;5133553;27;20381;-39
2022/05/09 07:11:08;;;;;;;21.17;5.47;;;27.60;33.60;;;;;;5132538;27;20102;-40
2022/05/09 07:13:34;;;;;;;23.17;5.65;;;27.70;33.60;;;;;;5132721;27;20102;-38
2022/05/09 07:16:00;;;;;;;22.73;4.70;;;27.70;33.40;;;;;;5132236;27;20473;-39
2022/05/09 07:18:28;;;;;;;27.05;4.50;;;27.70;32.60;;;;;;5130553;27;20027;-39
2022/05/09 07:20:54;;;;;;;25.55;4.50;;;27.70;32.50;;;;;;5132028;27;20043;-38
2022/05/09 07:23:20;;;;;;;17.58;4.63;;;27.50;32.70;;;;;;5132534;27;20473;-38
2022/05/09 07:25:48;;;;;;;25.50;4.63;;;27.10;33.40;;;;;;5133084;27;20027;-38
2022/05/09 07:28:18;;;;;;;26.38;4.35;;;27.00;33.50;;;;;;5132897;27;20030;-38
2022/05/09 07:30:44;;;;;;;20.88;4.35;;;26.70;33.60;;;;;;5131633;28;20029;-39
2022/05/09 07:33:11;;;;;;;16.48;3.50;;;26.40;33.70;;;;;;5131500;28;20024;-39
2022/05/09 07:35:37;;;;;;;14.43;3.40;;;26.30;33.50;;;;;;5133010;27;20007;-38
2022/05/09 07:38:03;;;;;;;19.67;3.70;;;26.40;33.20;;;;;;5131012;28;20450;-38
2022/05/09 07:40:29;;;;;;;10.73;3.38;;;26.40;32.80;;;;;;5132835;27;20090;-40
2022/05/09 07:42:54;;;;;;;11.00;3.03;;;26.40;33.00;;;;;;5133016;28;20051;-38
2022/05/09 07:45:20;;;;;;;13.18;3.30;;;26.40;32.80;;;;;;5133134;28;20034;-38
2022/05/09 07:47:46;;;;;;;12.07;3.03;;;26.50;32.50;;;;;;5132893;28;20023;-38
2022/05/09 07:50:12;;;;;;;10.88;2.92;;;26.50;32.80;;;;;;5134486;27;20012;-38
2022/05/09 07:52:38;;;;;;;14.52;2.70;;;26.40;32.80;;;;;;5136841;27;20099;-38
2022/05/09 07:55:04;;;;;;;13.85;2.40;;;26.50;32.70;;;;;;5118380;27;20046;-38
2022/05/09 07:57:30;;;;;;;6.30;2.40;;;26.40;32.80;;;;;;5135846;27;20019;-38
2022/05/09 07:59:58;;;;;;;13.73;3.50;;;26.40;32.60;;;;;;5135416;27;20015;-39
2022/05/09 08:02:24;;;;;;;8.93;2.50;;;26.50;32.30;;;;;;5135296;27;20111;-38
2022/05/09 08:04:49;;;;;;;9.55;2.10;;;26.50;32.20;;;;;;5134089;27;20007;-39
2022/05/09 08:07:16;;;;;;;10.20;2.50;;;26.70;32.00;;;;;;5135075;27;20027;-39
2022/05/09 08:09:42;;;;;;;8.25;2.05;;;26.90;31.80;;;;;;5134095;27;20015;-39
2022/05/09 08:12:09;;;;;;;11.77;2.25;;;27.00;31.50;;;;;;5134739;27;20140;-38
2022/05/09 08:14:35;;;;;;;9.98;2.55;;;27.10;31.40;;;;;;5135772;27;20059;-39
2022/05/09 08:17:02;;;;;;;8.95;2.53;;;27.20;31.30;;;;;;5133955;27;20019;-38
2022/05/09 08:19:31;;;;;;;11.85;2.33;;;27.20;31.30;;;;;;5136013;27;20434;-39
2022/05/09 08:21:57;;;;;;;17.33;2.85;;;27.10;30.90;;;;;;5135902;27;20122;-38
2022/05/09 08:24:24;;;;;;;12.52;2.58;;;27.10;31.20;;;;;;5135867;27;20111;-38
2022/05/09 08:26:50;;;;;;;15.27;3.25;;;27.00;31.30;;;;;;5135311;27;20149;-38
2022/05/09 08:29:16;;;;;;;12.18;3.08;;;27.00;31.60;;;;;;5135357;27;20418;-39
2022/05/09 08:31:42;;;;;;;9.98;2.85;;;27.00;31.70;;;;;;5137121;27;20091;-39
2022/05/09 08:34:10;;;;;;;10.85;2.60;;;26.90;31.90;;;;;;5136875;27;20034;-39
2022/05/09 08:36:53;;;;;;;14.55;2.67;;;26.80;32.60;;;;;;5136697;27;20046;-41
2022/05/09 08:39:19;;;;;;;10.60;2.55;;;26.80;32.00;;;;;;5136291;27;20039;-40
2022/05/09 08:42:01;;;;;;;11.32;2.50;;;26.70;32.10;;;;;;5137180;27;20373;-39
2022/05/09 08:44:44;;;;;;;11.40;2.75;;;26.80;32.30;;;;;;5136345;27;20362;-39
2022/05/09 08:47:51;;;;;;;8.70;2.35;;;26.50;32.70;;;;;;5137071;27;20019;-39
2022/05/09 08:50:39;;;;;;;10.00;2.40;;;26.40;32.50;;;;;;5124226;27;20024;-37
2022/05/09 08:53:10;;;;;;;7.32;2.75;;;25.80;32.30;;;;;;5137091;27;20015;-41
2022/05/09 08:55:40;;;;;;;8.25;2.50;;;25.50;32.50;;;;;;5135348;27;20012;-37
2022/05/09 08:58:27;;;;;;;7.22;2.55;;;25.60;32.30;;;;;;5119040;27;20094;-37
2022/05/09 09:00:53;;;;;;;9.02;2.20;;;25.20;31.10;;;;;;5120180;27;20015;-37
2022/05/09 09:03:28;;;;;;;8.20;2.53;;;25.00;31.70;;;;;;5135974;27;20042;-37
2022/05/09 09:05:55;;;;;;;8.73;1.92;;;25.00;31.70;;;;;;5118564;27;20019;-38
2022/05/09 09:08:33;;;;;;;10.38;1.95;;;25.20;31.60;;;;;;5134297;27;20080;-37
2022/05/09 09:11:29;;;;;;;8.45;2.20;;;25.20;30.60;;;;;;5118793;27;20084;-36
2022/05/09 09:14:21;;;;;;;5.68;1.80;;;25.20;30.60;;;;;;5134616;27;20378;-37
2022/05/09 09:17:08;;;;;;;9.38;1.70;;;24.80;30.70;;;;;;5082491;27;20023;-37
2022/05/09 09:19:52;;;;;;;7.10;2.03;;;24.80;31.20;;;;;;5134962;27;20027;-38
2022/05/09 09:22:30;;;;;;;7.45;2.40;;;24.90;30.80;;;;;;5135306;27;20035;-39
2022/05/09 09:25:17;;;;;;;7.80;1.95;;;25.10;30.80;;;;;;5133861;27;20030;-37
2022/05/09 09:27:46;;;;;;;8.40;1.75;;;25.30;30.80;;;;;;5135126;27;20030;-38
2022/05/09 09:30:17;;;;;;;15.25;1.95;;;25.40;30.60;;;;;;5133819;27;20037;-37
2022/05/09 09:32:44;;;;;;;12.23;2.35;;;25.40;30.00;;;;;;5134710;27;20007;-37
2022/05/09 09:35:27;;;;;;;10.70;1.88;;;25.40;30.00;;;;;;5133314;27;20136;-37
2022/05/09 09:37:56;;;;;;;11.93;2.28;;;25.30;29.50;;;;;;5133842;27;20435;-37
2022/05/09 09:40:21;;;;;;;5.57;1.67;;;25.40;30.00;;;;;;5133738;27;20020;-37
2022/05/09 09:42:56;;;;;;;8.43;1.25;;;25.50;29.90;;;;;;5135244;27;20402;-37
2022/05/09 09:45:44;;;;;;;7.80;1.67;;;25.30;30.40;;;;;;5133479;27;20019;-37
2022/05/09 09:48:20;;;;;;;5.10;1.70;;;25.40;30.50;;;;;;5134861;27;20136;-37
2022/05/09 09:50:55;;;;;;;6.68;1.50;;;25.20;30.00;;;;;;5133515;27;20062;-37
2022/05/09 09:53:41;;;;;;;5.07;1.33;;;25.30;30.30;;;;;;5132956;27;20026;-37
2022/05/09 09:56:20;;;;;;;4.43;1.27;;;25.30;30.80;;;;;;5133100;27;20030;-38
2022/05/09 09:58:47;;;;;;;5.20;1.37;;;25.30;29.90;;;;;;5132852;27;20092;-38
2022/05/09 10:01:21;;;;;;;7.22;1.40;;;25.10;29.90;;;;;;5134992;27;20051;-40
2022/05/09 10:03:48;;;;;;;7.72;1.60;;;25.10;29.70;;;;;;5135577;27;20011;-39
2022/05/09 10:06:21;;;;;;;9.25;1.50;;;25.20;29.60;;;;;;5139826;27;20030;-41
2022/05/09 10:08:54;;;;;;;7.50;1.85;;;25.10;29.60;;;;;;5139351;27;20034;-39
2022/05/09 10:11:19;;;;;;;11.30;1.80;;;25.20;29.50;;;;;;5137515;27;20023;-39
2022/05/09 10:13:48;;;;;;;9.88;1.77;;;24.80;30.60;;;;;;5135541;27;20019;-39
2022/05/09 10:16:33;;;;;;;7.53;1.55;;;24.90;30.50;;;;;;5136714;27;20095;-38
2022/05/09 10:19:05;;;;;;;9.90;1.73;;;25.10;30.40;;;;;;5137288;27;20008;-38
2022/05/09 10:24:51;;;;;;;7.20;1.88;;;25.00;31.00;;;;;;5136725;27;20029;-38
2022/05/09 10:27:22;;;;;;;8.23;1.60;;;25.00;30.60;;;;;;5135806;27;20019;-38
2022/05/09 10:29:55;;;;;;;9.90;1.42;;;25.00;30.00;;;;;;5136562;27;20015;-39
2022/05/09 10:32:44;;;;;;;4.85;1.60;;;25.10;30.10;;;;;;5136378;27;20018;-40
2022/05/09 10:35:19;;;;;;;6.77;1.30;;;25.20;29.70;;;;;;5136370;27;20015;-39
2022/05/09 10:38:09;;;;;;;7.32;1.70;;;25.40;29.50;;;;;;5136781;27;20618;-39
2022/05/09 10:40:37;;;;;;;5.88;1.58;;;25.50;29.30;;;;;;5136346;27;20023;-39
2022/05/09 10:43:05;;;;;;;5.82;1.58;;;25.40;29.30;;;;;;5137160;27;20493;-38
2022/05/09 10:45:36;;;;;;;4.88;1.77;;;25.40;29.20;;;;;;5132392;27;20011;-39
2022/05/09 10:48:21;;;;;;;4.35;1.38;;;25.20;29.30;;;;;;5132169;27;20018;-37
2022/05/09 10:51:02;;;;;;;5.97;1.80;;;24.80;29.60;;;;;;5114769;27;20027;-37
2022/05/09 10:53:53;;;;;;;8.48;1.20;;;24.90;30.00;;;;;;5132236;27;20537;-37
2022/05/09 10:56:31;;;;;;;11.45;1.70;;;24.90;30.90;;;;;;5132110;27;20097;-37
2022/05/09 10:59:09;;;;;;;8.13;1.70;;;24.70;30.60;;;;;;5131674;27;20011;-37
2022/05/09 11:01:38;;;;;;;12.93;1.95;;;24.70;30.80;;;;;;5133589;27;20102;-37
2022/05/09 11:04:04;;;;;;;4.82;1.60;;;24.50;30.20;;;;;;5133220;27;20011;-37
2022/05/09 11:06:37;;;;;;;8.93;1.67;;;24.20;31.20;;;;;;5133212;27;20120;-37
2022/05/09 11:09:24;;;;;;;6.82;1.55;;;24.50;31.50;;;;;;5133196;27;20007;-36
2022/05/09 11:12:19;;;;;;;10.68;2.30;;;24.70;31.50;;;;;;5131892;27;20003;-37
2022/05/09 11:14:51;;;;;;;8.65;1.73;;;24.80;31.90;;;;;;5132913;27;20556;-36
2022/05/09 11:17:48;;;;;;;8.23;1.55;;;25.00;31.60;;;;;;5131510;27;20470;-37
2022/05/09 11:20:30;;;;;;;6.03;1.40;;;25.10;31.50;;;;;;5132379;27;20015;-37
2022/05/09 11:23:20;;;;;;;10.13;1.58;;;25.20;31.80;;;;;;5131408;27;20106;-36
2022/05/09 11:26:22;;;;;;;9.82;1.77;;;25.20;32.00;;;;;;5132626;27;20150;-36
2022/05/09 11:29:18;;;;;;;6.05;1.30;;;25.30;32.30;;;;;;5063550;27;20079;-37
2022/05/09 11:32:06;;;;;;;9.85;1.70;;;25.30;32.10;;;;;;5113851;28;20023;-36
2022/05/09 11:34:54;;;;;;;7.93;1.83;;;25.40;32.40;;;;;;5116134;28;20031;-37
2022/05/09 11:37:32;;;;;;;8.15;2.25;;;25.40;32.20;;;;;;5131837;28;20023;-37
2022/05/09 11:40:16;;;;;;;6.28;2.33;;;24.90;31.80;;;;;;5132326;28;20030;-37
2022/05/09 11:46:17;;;;;;;5.28;1.80;;;24.30;32.10;;;;;;5105807;27;20041;-37
2022/05/09 11:48:58;;;;;;;7.85;2.28;;;24.40;32.30;;;;;;5134639;27;20023;-37
2022/05/09 11:51:54;;;;;;;8.25;2.63;;;24.20;32.20;;;;;;5133932;28;20019;-37
2022/05/09 11:54:39;;;;;;;6.43;1.70;;;24.00;32.80;;;;;;5134363;27;20502;-37
2022/05/09 11:57:40;;;;;;;10.20;1.80;;;24.40;32.80;;;;;;5133187;28;20015;-37
2022/05/09 12:00:10;;;;;;;7.00;1.80;;;24.70;32.40;;;;;;5033803;28;20037;-38
2022/05/09 12:02:53;;;;;;;8.27;2.78;;;24.50;32.40;;;;;;5050818;28;20060;-37
2022/05/09 12:05:25;;;;;;;6.78;2.95;;;24.80;32.40;;;;;;5034256;28;20091;-37
2022/05/09 12:08:03;;;;;;;10.13;2.50;;;24.80;32.60;;;;;;5049906;28;20032;-39
2022/05/09 12:10:32;;;;;;;10.65;2.53;;;24.50;33.10;;;;;;5050667;28;20116;-36
2022/05/09 12:13:04;;;;;;;6.82;2.40;;;24.70;33.50;;;;;;5033965;28;20017;-36
2022/05/09 12:15:29;;;;;;;11.35;2.30;;;24.80;33.50;;;;;;5034155;28;20112;-36
2022/05/09 12:17:57;;;;;;;9.23;2.47;;;24.90;33.20;;;;;;5049942;28;20085;-37
2022/05/09 12:20:29;;;;;;;5.95;2.70;;;25.10;32.90;;;;;;5049903;28;20037;-37
2022/05/09 12:23:07;;;;;;;5.47;2.50;;;24.90;32.70;;;;;;5049334;28;20068;-36
2022/05/09 12:25:36;;;;;;;4.57;2.50;;;24.70;33.40;;;;;;5033745;28;20108;-36
2022/05/09 12:28:20;;;;;;;7.20;3.00;;;24.80;33.50;;;;;;5048251;28;20033;-36
2022/05/09 12:30:51;;;;;;;8.55;2.50;;;24.80;33.30;;;;;;5047324;28;20037;-36
2022/05/09 12:33:30;;;;;;;7.30;2.35;;;24.80;33.30;;;;;;5062300;28;20039;-36
2022/05/09 12:36:02;;;;;;;11.30;3.28;;;24.40;33.80;;;;;;5130620;27;20040;-36
2022/05/09 12:38:31;;;;;;;8.85;2.58;;;24.40;34.10;;;;;;5134458;27;20012;-37
2022/05/09 12:41:04;;;;;;;10.70;2.67;;;24.50;34.30;;;;;;5136009;27;20095;-36
2022/05/09 12:43:30;;;;;;;9.02;2.65;;;24.80;34.40;;;;;;5136041;27;20257;-36
2022/05/09 12:45:56;;;;;;;8.43;2.40;;;25.00;34.70;;;;;;5134917;27;20084;-36
2022/05/09 12:48:24;;;;;;;9.07;2.45;;;25.10;35.00;;;;;;5136120;27;20023;-36
2022/05/09 12:50:50;;;;;;;8.18;2.70;;;25.10;35.70;;;;;;5135108;27;20035;-36
2022/05/09 12:53:17;;;;;;;9.68;2.75;;;25.20;35.20;;;;;;5117269;27;20026;-36
2022/05/09 12:55:57;;;;;;;9.48;2.80;;;25.20;35.20;;;;;;5134487;27;20021;-36
2022/05/09 12:58:36;;;;;;;15.35;2.85;;;25.30;35.40;;;;;;5134696;27;20099;-36
2022/05/09 13:01:17;;;;;;;6.63;2.80;;;25.30;35.50;;;;;;5135420;27;20023;-36
2022/05/09 13:03:54;;;;;;;6.25;2.53;;;25.40;35.50;;;;;;5135801;27;20030;-36
2022/05/09 13:06:22;;;;;;;5.82;2.75;;;25.50;35.50;;;;;;5135541;27;20007;-37
2022/05/09 13:08:48;;;;;;;7.28;3.00;;;25.50;35.70;;;;;;5135621;27;20007;-36
2022/05/09 13:11:19;;;;;;;9.65;3.15;;;25.60;35.90;;;;;;5134926;27;20015;-37
2022/05/09 13:13:54;;;;;;;8.88;3.15;;;25.70;35.90;;;;;;5116373;27;20025;-37
2022/05/09 13:16:21;;;;;;;8.88;3.20;;;25.70;36.10;;;;;;5134639;27;20011;-37